Overview Statistics Trail Chart Weather Telemetry Raw packets
 

This is the latest recevied weather packets stored in our database for station/object R8AHC-W4. If no packets are shown the sender has not sent any weather packets the latest 10 day(s).

<< 1 2 3 4 >>
Time Temp. Humidity Pressure Rain* Wind** Luminosity Snow
1777726622 10° C 52% 1018 hPa - 4.47 m/s, 289° - -
1777719423 11.67° C 38% 1016 hPa - 4.92 m/s, 289° - -
1777715822 11.67° C 38% 1016 hPa - 4.92 m/s, 289° - -
1777708623 10° C 41% 1016 hPa - 4.02 m/s, 283° - -
1777697822 4.44° C 85% 1015 hPa - 3.13 m/s, 306° - -
1777694222 4.44° C 85% 1015 hPa - 3.13 m/s, 306° - -
1777690622 4.44° C 85% 1014 hPa - 3.13 m/s, 306° - -
1777687022 4.44° C 85% 1014 hPa - 3.13 m/s, 306° - -
1777679822 3.33° C 93% 1013 hPa - 2.24 m/s, 281° - -
1777669022 5° C 89% 1012 hPa - 2.68 m/s, 265° - -
1777665422 5° C 89% 1012 hPa - 2.68 m/s, 265° - -
1777658223 5° C 85% 1011 hPa - 3.13 m/s, 275° - -
1777651022 5° C 89% 1011 hPa - 2.68 m/s, 294° - -
1777643822 5.56° C 87% 1010 hPa - 4.47 m/s, 330° - -
1777633022 5° C 94% 1009 hPa - 5.36 m/s, 340° - -
1777611422 6.11° C 87% 1011 hPa - 4.47 m/s, 30° - -
1777607822 6.11° C 87% 1012 hPa - 4.47 m/s, 30° - -
1777579022 7.78° C 73% 1016 hPa - 2.24 m/s, 22° - -
1777575422 7.78° C 73% 1017 hPa - 2.24 m/s, 22° - -
1777571822 7.78° C 73% 1017 hPa - 2.24 m/s, 22° - -
1777561022 10° C 55% 1018 hPa - 0.89 m/s, 63° - -
1777550222 12.78° C 33% 1019 hPa - 0.89 m/s, 155° - -
1777532222 10.56° C 37% 1021 hPa - 2.68 m/s, 253° - -
1777528623 10.56° C 37% 1021 hPa - 2.68 m/s, 253° - -
1777521422 8.89° C 55% 1022 hPa - 3.13 m/s, 247° - -

* Rain since midnight (hover to see other rain measurements)
** Current wind speed in m/s (hover to see current wind gust speed)